createdAt,value
2017-05-21T00:00:25.801Z,312
2017-05-21T00:01:28.404Z,276
2017-05-21T00:02:30.781Z,236
2017-05-21T00:03:33.765Z,196
2017-05-21T00:04:36.153Z,168
2017-05-21T00:05:38.528Z,148
2017-05-21T00:06:40.910Z,124
2017-05-21T00:07:43.302Z,100
2017-05-21T00:08:46.293Z,80
2017-05-21T00:09:48.670Z,60
2017-05-21T00:10:51.050Z,48
2017-05-21T00:11:53.441Z,36
2017-05-21T00:12:55.802Z,24
2017-05-21T00:13:58.783Z,16
2017-05-21T00:15:01.139Z,16
2017-05-21T00:16:03.525Z,12
2017-05-21T00:17:05.922Z,8
2017-05-21T00:18:08.302Z,4
2017-05-21T00:19:11.293Z,4
2017-05-21T00:20:13.660Z,4
2017-05-21T00:21:16.039Z,4
2017-05-21T00:22:18.420Z,0
2017-05-21T00:23:20.787Z,4
2017-05-21T00:24:23.787Z,0
2017-05-21T00:25:26.157Z,4
2017-05-21T00:26:28.529Z,0
2017-05-21T00:27:30.923Z,0
2017-05-21T00:28:33.287Z,0
2017-05-21T00:29:36.260Z,0
2017-05-21T00:30:38.650Z,0
2017-05-21T00:31:41.249Z,0
2017-05-21T00:32:43.624Z,0
2017-05-21T00:33:46.018Z,0
2017-05-21T00:34:49.012Z,0
2017-05-21T00:35:51.401Z,0
2017-05-21T00:36:53.766Z,0
2017-05-21T00:37:56.154Z,0
2017-05-21T00:38:58.532Z,0
2017-05-21T00:40:01.522Z,0
2017-05-21T00:41:03.913Z,0
2017-05-21T00:42:06.291Z,0
2017-05-21T00:43:08.659Z,0
2017-05-21T00:44:11.016Z,0
2017-05-21T00:45:13.996Z,0
2017-05-21T00:46:16.373Z,0
2017-05-21T00:47:18.748Z,0
2017-05-21T00:48:21.138Z,0
2017-05-21T00:49:23.492Z,0
2017-05-21T00:50:26.455Z,0
2017-05-21T00:51:28.827Z,0
2017-05-21T00:52:31.202Z,0
2017-05-21T00:53:33.579Z,0
2017-05-21T00:54:35.927Z,0
2017-05-21T00:55:38.993Z,0
2017-05-21T00:56:41.348Z,0
2017-05-21T00:57:43.721Z,0
2017-05-21T00:58:46.075Z,0
2017-05-21T00:59:48.461Z,0
2017-05-21T01:00:51.426Z,0
2017-05-21T01:01:53.783Z,0
2017-05-21T01:02:56.161Z,0
2017-05-21T01:03:58.552Z,0
2017-05-21T01:05:00.911Z,0
2017-05-21T01:06:04.067Z,0
2017-05-21T01:07:06.440Z,0
2017-05-21T01:08:08.837Z,0
2017-05-21T01:09:11.215Z,0
2017-05-21T01:10:13.571Z,0
2017-05-21T01:11:16.562Z,0
2017-05-21T01:12:18.920Z,0
2017-05-21T01:13:21.299Z,0
2017-05-21T01:14:23.671Z,0
2017-05-21T01:15:26.049Z,0
2017-05-21T01:16:28.975Z,0
2017-05-21T01:17:31.350Z,0
2017-05-21T01:18:33.712Z,0
2017-05-21T01:19:36.087Z,0
2017-05-21T01:20:38.454Z,0
2017-05-21T01:21:41.519Z,0
2017-05-21T01:22:43.875Z,0
2017-05-21T01:23:46.231Z,0
2017-05-21T01:24:48.613Z,0
2017-05-21T01:25:50.997Z,0
2017-05-21T01:26:53.982Z,0
2017-05-21T01:27:56.377Z,0
2017-05-21T01:28:58.742Z,0
2017-05-21T01:30:01.095Z,0
2017-05-21T01:31:03.461Z,0
2017-05-21T01:32:06.371Z,0
2017-05-21T01:33:08.749Z,0
2017-05-21T01:34:11.133Z,0
2017-05-21T01:35:13.496Z,0
2017-05-21T01:36:15.865Z,0
2017-05-21T01:37:18.832Z,0
2017-05-21T01:38:21.206Z,0
2017-05-21T01:39:23.569Z,0
2017-05-21T01:40:25.949Z,0
2017-05-21T01:41:28.304Z,0
2017-05-21T01:42:31.582Z,0
2017-05-21T01:43:33.961Z,0
2017-05-21T01:44:36.321Z,0
2017-05-21T01:45:38.696Z,0
2017-05-21T01:46:41.076Z,0
2017-05-21T01:47:44.211Z,0
2017-05-21T01:48:46.597Z,0
2017-05-21T01:49:48.971Z,0
2017-05-21T01:50:51.333Z,0
2017-05-21T01:51:53.695Z,0
2017-05-21T01:52:56.604Z,0
2017-05-21T01:53:58.957Z,0
2017-05-21T01:55:01.328Z,0
2017-05-21T01:56:03.688Z,0
2017-05-21T01:57:06.062Z,0
2017-05-21T01:58:09.052Z,0
2017-05-21T01:59:11.370Z,0
2017-05-21T02:00:13.732Z,0
2017-05-21T02:01:16.116Z,0
2017-05-21T02:02:18.462Z,0
2017-05-21T02:03:21.377Z,0
2017-05-21T02:04:23.742Z,0
2017-05-21T02:05:26.107Z,0
2017-05-21T02:06:28.470Z,0
2017-05-21T02:07:30.819Z,0
2017-05-21T02:08:33.740Z,0
2017-05-21T02:09:36.129Z,0
2017-05-21T02:10:38.497Z,0
2017-05-21T02:11:40.857Z,0
2017-05-21T02:12:43.219Z,0
2017-05-21T02:13:46.182Z,0
2017-05-21T02:14:48.538Z,0
2017-05-21T02:15:50.891Z,0
2017-05-21T02:16:53.249Z,0
2017-05-21T02:17:55.611Z,0
2017-05-21T02:18:58.518Z,0
2017-05-21T02:20:00.874Z,0
2017-05-21T02:21:03.238Z,0
2017-05-21T02:22:05.593Z,0
2017-05-21T02:23:07.957Z,0
2017-05-21T02:24:11.015Z,0
2017-05-21T02:25:13.373Z,0
2017-05-21T02:26:15.723Z,0
2017-05-21T02:27:18.078Z,0
2017-05-21T02:28:20.436Z,0
2017-05-21T02:29:23.409Z,0
2017-05-21T02:30:25.756Z,0
2017-05-21T02:31:28.116Z,0
2017-05-21T02:32:30.465Z,0
2017-05-21T02:33:32.821Z,0
2017-05-21T02:34:35.735Z,0
2017-05-21T02:35:38.093Z,0
2017-05-21T02:36:40.465Z,0
2017-05-21T02:37:42.814Z,0
2017-05-21T02:38:45.179Z,0
2017-05-21T02:39:48.144Z,0
2017-05-21T02:40:50.497Z,0
2017-05-21T02:41:52.855Z,0
2017-05-21T02:42:55.222Z,0
2017-05-21T02:43:57.569Z,0
2017-05-21T02:45:00.484Z,0
2017-05-21T02:46:02.839Z,0
2017-05-21T02:47:05.205Z,0
2017-05-21T02:48:07.567Z,0
2017-05-21T02:49:09.922Z,0
2017-05-21T02:50:12.888Z,0
2017-05-21T02:51:15.248Z,0
2017-05-21T02:52:17.632Z,0
2017-05-21T02:53:19.988Z,0
2017-05-21T02:54:22.347Z,0
2017-05-21T02:55:25.411Z,0
2017-05-21T02:56:27.761Z,0
2017-05-21T02:57:30.128Z,0
2017-05-21T02:58:32.491Z,0
2017-05-21T02:59:34.850Z,0
2017-05-21T03:00:37.932Z,0
2017-05-21T03:01:40.277Z,0
2017-05-21T03:02:42.642Z,0
2017-05-21T03:03:45.007Z,0
2017-05-21T03:04:47.359Z,0
2017-05-21T03:05:50.318Z,0
2017-05-21T03:06:52.688Z,0
2017-05-21T03:07:55.055Z,0
2017-05-21T03:08:57.419Z,0
2017-05-21T03:09:59.781Z,0
2017-05-21T03:11:02.738Z,0
2017-05-21T03:12:05.172Z,0
2017-05-21T03:13:07.486Z,0
2017-05-21T03:14:09.854Z,0
2017-05-21T03:15:12.223Z,0
2017-05-21T03:16:15.156Z,0
2017-05-21T03:17:17.534Z,0
2017-05-21T03:18:19.886Z,0
2017-05-21T03:19:22.249Z,0
2017-05-21T03:20:24.618Z,0
2017-05-21T03:21:27.698Z,0
2017-05-21T03:22:30.080Z,0
2017-05-21T03:23:32.441Z,0
2017-05-21T03:24:34.796Z,0
2017-05-21T03:25:37.154Z,0
2017-05-21T03:26:40.145Z,0
2017-05-21T03:27:42.479Z,0
2017-05-21T03:28:44.858Z,0
2017-05-21T03:29:47.210Z,0
2017-05-21T03:30:49.564Z,0
2017-05-21T03:31:52.530Z,0
2017-05-21T03:32:54.897Z,0
2017-05-21T03:33:57.256Z,0
2017-05-21T03:34:59.617Z,0
2017-05-21T03:36:01.982Z,0
2017-05-21T03:37:04.949Z,0
2017-05-21T03:38:07.323Z,0
2017-05-21T03:39:09.683Z,0
2017-05-21T03:40:12.048Z,0
2017-05-21T03:41:14.403Z,0
2017-05-21T03:42:17.518Z,0
2017-05-21T03:43:19.881Z,0
2017-05-21T03:44:22.241Z,0
2017-05-21T03:45:24.602Z,0
2017-05-21T03:46:26.970Z,0
2017-05-21T03:47:29.925Z,0
2017-05-21T03:48:32.302Z,0
2017-05-21T03:49:34.651Z,0
2017-05-21T03:50:37.022Z,0
2017-05-21T03:51:39.378Z,0
2017-05-21T03:52:42.445Z,0
2017-05-21T03:53:45.010Z,0
2017-05-21T03:54:47.365Z,0
2017-05-21T03:55:49.735Z,0
2017-05-21T03:56:52.097Z,0
2017-05-21T03:57:55.052Z,0
2017-05-21T03:58:57.420Z,0
2017-05-21T03:59:59.773Z,0
2017-05-21T04:01:02.184Z,0
2017-05-21T04:02:04.483Z,0
2017-05-21T04:03:07.547Z,0
2017-05-21T04:04:09.904Z,0
2017-05-21T04:05:12.264Z,0
2017-05-21T04:06:14.615Z,0
2017-05-21T04:07:16.981Z,0
2017-05-21T04:08:19.953Z,0
2017-05-21T04:09:22.308Z,0
2017-05-21T04:10:24.676Z,0
2017-05-21T04:11:27.034Z,0
2017-05-21T04:12:29.388Z,0
2017-05-21T04:13:32.346Z,0
2017-05-21T04:14:34.710Z,0
2017-05-21T04:15:37.066Z,0
2017-05-21T04:16:39.433Z,0
2017-05-21T04:17:41.792Z,0
2017-05-21T04:18:44.748Z,0
2017-05-21T04:19:47.106Z,0
2017-05-21T04:20:49.464Z,0
2017-05-21T04:21:51.820Z,0
2017-05-21T04:22:54.180Z,0
2017-05-21T04:23:57.244Z,0
2017-05-21T04:24:59.600Z,0
2017-05-21T04:26:01.965Z,0
2017-05-21T04:27:04.326Z,0
2017-05-21T04:28:06.684Z,0
2017-05-21T04:29:09.639Z,0
2017-05-21T04:30:11.994Z,0
2017-05-21T04:31:14.363Z,0
2017-05-21T04:32:16.715Z,0
2017-05-21T04:33:19.074Z,0
2017-05-21T04:34:22.029Z,0
2017-05-21T04:35:24.404Z,0
2017-05-21T04:36:26.763Z,0
2017-05-21T04:37:29.117Z,0
2017-05-21T04:38:31.478Z,0
2017-05-21T04:39:34.542Z,0
2017-05-21T04:40:36.900Z,0
2017-05-21T04:41:39.262Z,0
2017-05-21T04:42:41.620Z,0
2017-05-21T04:43:43.978Z,0
2017-05-21T04:44:46.937Z,0
2017-05-21T04:45:49.290Z,0
2017-05-21T04:46:51.649Z,0
2017-05-21T04:47:54.018Z,0
2017-05-21T04:48:56.370Z,0
2017-05-21T04:49:59.338Z,0
2017-05-21T04:51:01.695Z,0
2017-05-21T04:52:04.050Z,0
2017-05-21T04:53:06.403Z,0
2017-05-21T04:54:08.766Z,0
2017-05-21T04:55:11.818Z,0
2017-05-21T04:56:14.178Z,0
2017-05-21T04:57:16.529Z,0
2017-05-21T04:58:18.881Z,0
2017-05-21T04:59:21.245Z,0
2017-05-21T05:00:24.199Z,0
2017-05-21T05:01:26.587Z,0
2017-05-21T05:02:28.972Z,0
2017-05-21T05:03:31.366Z,0
2017-05-21T05:04:33.743Z,0
2017-05-21T05:05:36.930Z,0
2017-05-21T05:06:39.315Z,0
2017-05-21T05:07:41.703Z,0
2017-05-21T05:08:44.067Z,0
2017-05-21T05:09:46.493Z,0
2017-05-21T05:10:49.547Z,0
2017-05-21T05:11:51.912Z,0
2017-05-21T05:12:54.266Z,0
2017-05-21T05:13:56.643Z,0
2017-05-21T05:14:59.008Z,0
2017-05-21T05:16:02.068Z,0
2017-05-21T05:17:04.422Z,0
2017-05-21T05:18:06.779Z,0
2017-05-21T05:19:09.143Z,0
2017-05-21T05:20:11.507Z,0
2017-05-21T05:21:14.462Z,0
2017-05-21T05:22:16.828Z,0
2017-05-21T05:23:19.188Z,0
2017-05-21T05:24:21.550Z,0
2017-05-21T05:25:23.905Z,0
2017-05-21T05:26:26.880Z,0
2017-05-21T05:27:29.241Z,0
2017-05-21T05:28:31.592Z,0
2017-05-21T05:29:33.960Z,0
2017-05-21T05:30:36.311Z,0
2017-05-21T05:31:39.296Z,0
2017-05-21T05:32:41.648Z,0
2017-05-21T05:33:44.011Z,0
2017-05-21T05:34:46.380Z,0
2017-05-21T05:35:48.732Z,0
2017-05-21T05:36:51.692Z,0
2017-05-21T05:37:54.048Z,0
2017-05-21T05:38:56.414Z,0
2017-05-21T05:39:58.773Z,0
2017-05-21T05:41:01.136Z,0
2017-05-21T05:42:04.106Z,0
2017-05-21T05:43:06.463Z,0
2017-05-21T05:44:08.825Z,0
2017-05-21T05:45:11.175Z,0
2017-05-21T05:46:13.532Z,0
2017-05-21T05:47:16.498Z,0
2017-05-21T05:48:18.857Z,0
2017-05-21T05:49:21.214Z,0
2017-05-21T05:50:23.578Z,0
2017-05-21T05:51:25.924Z,0
2017-05-21T05:52:28.990Z,0
2017-05-21T05:53:31.334Z,0
2017-05-21T05:54:33.695Z,0
2017-05-21T05:55:36.057Z,0
2017-05-21T05:56:38.408Z,0
2017-05-21T05:57:41.470Z,0
2017-05-21T05:58:43.827Z,0
2017-05-21T05:59:46.195Z,0
2017-05-21T06:00:48.541Z,0
2017-05-21T06:01:50.892Z,0
2017-05-21T06:02:53.802Z,0
2017-05-21T06:03:56.151Z,0
2017-05-21T06:04:58.512Z,0
2017-05-21T06:06:00.875Z,0
2017-05-21T06:07:03.231Z,0
2017-05-21T06:08:06.293Z,0
2017-05-21T06:09:08.649Z,0
2017-05-21T06:10:11.008Z,0
2017-05-21T06:11:13.371Z,0
2017-05-21T06:12:15.723Z,0
2017-05-21T06:13:18.681Z,0
2017-05-21T06:14:21.040Z,0
2017-05-21T06:15:23.394Z,0
2017-05-21T06:16:25.757Z,0
2017-05-21T06:17:28.111Z,0
2017-05-21T06:18:31.070Z,0
2017-05-21T06:19:33.431Z,0
2017-05-21T06:20:35.788Z,0
2017-05-21T06:21:38.151Z,0
2017-05-21T06:22:40.504Z,0
2017-05-21T06:23:43.560Z,0
2017-05-21T06:24:45.921Z,0
2017-05-21T06:25:48.279Z,0
2017-05-21T06:26:50.640Z,0
2017-05-21T06:27:52.996Z,0
2017-05-21T06:28:55.903Z,0
2017-05-21T06:29:58.257Z,0
2017-05-21T06:31:00.616Z,0
2017-05-21T06:32:02.969Z,0
2017-05-21T06:33:05.323Z,0
2017-05-21T06:34:08.281Z,0
2017-05-21T06:35:10.640Z,0
2017-05-21T06:36:13.004Z,0
2017-05-21T06:37:15.359Z,0
2017-05-21T06:38:17.720Z,0
2017-05-21T06:39:20.768Z,0
2017-05-21T06:40:23.131Z,0
2017-05-21T06:41:25.484Z,0
2017-05-21T06:42:27.836Z,0
2017-05-21T06:43:30.183Z,0
2017-05-21T06:44:33.146Z,0
2017-05-21T06:45:35.508Z,0
2017-05-21T06:46:37.862Z,0
2017-05-21T06:47:40.216Z,0
2017-05-21T06:48:42.572Z,0
2017-05-21T06:49:45.527Z,0
2017-05-21T06:50:47.872Z,0
2017-05-21T06:51:50.229Z,0
2017-05-21T06:52:52.576Z,0
2017-05-21T06:53:54.938Z,0
2017-05-21T06:54:57.999Z,0
2017-05-21T06:56:00.358Z,0
2017-05-21T06:57:02.723Z,0
2017-05-21T06:58:05.078Z,0
2017-05-21T06:59:07.441Z,0
2017-05-21T07:00:10.401Z,0
2017-05-21T07:01:12.752Z,0
2017-05-21T07:02:15.126Z,0
2017-05-21T07:03:17.466Z,0
2017-05-21T07:04:19.822Z,0
2017-05-21T07:05:22.771Z,0
2017-05-21T07:06:25.134Z,0
2017-05-21T07:07:27.489Z,0
2017-05-21T07:08:30.046Z,0
2017-05-21T07:09:32.407Z,0
2017-05-21T07:10:35.358Z,0
2017-05-21T07:11:37.718Z,0
2017-05-21T07:12:40.080Z,0
2017-05-21T07:13:42.439Z,0
2017-05-21T07:14:44.793Z,0
2017-05-21T07:15:47.849Z,0
2017-05-21T07:16:50.211Z,0
2017-05-21T07:17:52.561Z,0
2017-05-21T07:18:54.917Z,0
2017-05-21T07:19:57.277Z,0
2017-05-21T07:21:00.236Z,0
2017-05-21T07:22:02.597Z,0
2017-05-21T07:23:04.959Z,0
2017-05-21T07:24:07.304Z,0
2017-05-21T07:25:09.666Z,0
2017-05-21T07:26:12.623Z,0
2017-05-21T07:27:14.978Z,0
2017-05-21T07:28:17.331Z,0
2017-05-21T07:29:19.684Z,0
2017-05-21T07:30:22.036Z,0
2017-05-21T07:31:24.992Z,0
2017-05-21T07:32:27.348Z,0
2017-05-21T07:33:29.714Z,0
2017-05-21T07:34:32.069Z,0
2017-05-21T07:35:34.427Z,0
2017-05-21T07:36:37.384Z,0
2017-05-21T07:37:39.740Z,0
2017-05-21T07:38:42.097Z,0
2017-05-21T07:39:44.451Z,0
2017-05-21T07:40:46.805Z,0
2017-05-21T07:41:49.768Z,0
2017-05-21T07:42:52.124Z,0
2017-05-21T07:43:54.484Z,0
2017-05-21T07:44:56.844Z,0
2017-05-21T07:45:59.205Z,0
2017-05-21T07:47:02.163Z,0
2017-05-21T07:48:04.532Z,0
2017-05-21T07:49:06.887Z,0
2017-05-21T07:50:09.250Z,0
2017-05-21T07:51:11.598Z,0
2017-05-21T07:52:14.558Z,0
2017-05-21T07:53:16.919Z,0
2017-05-21T07:54:19.272Z,0
2017-05-21T07:55:21.624Z,0
2017-05-21T07:56:23.975Z,0
2017-05-21T07:57:27.133Z,0
2017-05-21T07:58:29.486Z,0
2017-05-21T07:59:31.842Z,0
2017-05-21T08:00:34.199Z,0
2017-05-21T08:01:36.554Z,0
2017-05-21T08:02:39.523Z,0
2017-05-21T08:03:41.922Z,0
2017-05-21T08:04:44.232Z,0
2017-05-21T08:05:46.593Z,0
2017-05-21T08:06:48.940Z,0
2017-05-21T08:07:52.006Z,0
2017-05-21T08:08:54.355Z,0
2017-05-21T08:09:56.720Z,0
2017-05-21T08:10:59.078Z,0
2017-05-21T08:12:01.437Z,0
2017-05-21T08:13:04.395Z,0
2017-05-21T08:14:06.748Z,0
2017-05-21T08:15:09.101Z,0
2017-05-21T08:16:11.462Z,0
2017-05-21T08:17:13.820Z,0
2017-05-21T08:18:16.773Z,0
2017-05-21T08:19:19.153Z,0
2017-05-21T08:20:21.555Z,0
2017-05-21T08:21:23.848Z,0
2017-05-21T08:22:26.209Z,0
2017-05-21T08:23:29.268Z,0
2017-05-21T08:24:31.624Z,0
2017-05-21T08:25:33.985Z,0
2017-05-21T08:26:36.346Z,0
2017-05-21T08:27:38.694Z,0
2017-05-21T08:28:41.652Z,0
2017-05-21T08:29:44.004Z,0
2017-05-21T08:30:46.364Z,0
2017-05-21T08:31:48.717Z,0
2017-05-21T08:32:51.079Z,0
2017-05-21T08:33:54.133Z,0
2017-05-21T08:34:56.499Z,0
2017-05-21T08:35:58.856Z,0
2017-05-21T08:37:01.215Z,0
2017-05-21T08:38:03.567Z,0
2017-05-21T08:39:06.528Z,0
2017-05-21T08:40:08.881Z,0
2017-05-21T08:41:11.239Z,0
2017-05-21T08:42:13.595Z,0
2017-05-21T08:43:15.949Z,0
2017-05-21T08:44:18.903Z,0
2017-05-21T08:45:21.267Z,0
2017-05-21T08:46:23.614Z,0
2017-05-21T08:47:25.974Z,0
2017-05-21T08:48:28.331Z,0
2017-05-21T08:49:31.287Z,0
2017-05-21T08:50:33.656Z,0
2017-05-21T08:51:36.007Z,0
2017-05-21T08:52:38.362Z,0
2017-05-21T08:53:40.722Z,0
2017-05-21T08:54:43.774Z,0
2017-05-21T08:55:46.139Z,0
2017-05-21T08:56:48.502Z,0
2017-05-21T08:57:50.852Z,0
2017-05-21T08:58:53.213Z,0
2017-05-21T08:59:56.276Z,0
2017-05-21T09:00:58.629Z,0
2017-05-21T09:02:00.989Z,0
2017-05-21T09:03:03.358Z,0
2017-05-21T09:04:05.710Z,0
2017-05-21T09:05:08.761Z,0
2017-05-21T09:06:11.121Z,0
2017-05-21T09:07:13.469Z,0
2017-05-21T09:08:15.832Z,0
2017-05-21T09:09:18.191Z,0
2017-05-21T09:10:21.147Z,0
2017-05-21T09:11:23.520Z,0
2017-05-21T09:12:25.890Z,0
2017-05-21T09:13:28.228Z,0
2017-05-21T09:14:30.591Z,0
2017-05-21T09:15:33.549Z,0
2017-05-21T09:16:35.909Z,0
2017-05-21T09:17:38.267Z,0
2017-05-21T09:18:40.624Z,0
2017-05-21T09:19:42.968Z,0
2017-05-21T09:20:45.923Z,0
2017-05-21T09:21:48.288Z,0
2017-05-21T09:22:50.636Z,0
2017-05-21T09:23:52.989Z,0
2017-05-21T09:24:55.340Z,0
2017-05-21T09:25:58.295Z,0
2017-05-21T09:27:00.653Z,0
2017-05-21T09:28:03.013Z,0
2017-05-21T09:29:05.365Z,0
2017-05-21T09:30:07.733Z,0
2017-05-21T09:31:10.790Z,0
2017-05-21T09:32:13.145Z,0
2017-05-21T09:33:15.514Z,0
2017-05-21T09:34:17.868Z,0
2017-05-21T09:35:20.225Z,0
2017-05-21T09:36:23.140Z,0
2017-05-21T09:37:25.484Z,0
2017-05-21T09:38:27.849Z,0
2017-05-21T09:39:30.203Z,0
2017-05-21T09:40:32.568Z,0
2017-05-21T09:41:35.479Z,0
2017-05-21T09:42:37.836Z,0
2017-05-21T09:43:40.191Z,0
2017-05-21T09:44:42.539Z,0
2017-05-21T09:45:44.901Z,0
2017-05-21T09:46:47.869Z,0
2017-05-21T09:47:50.220Z,0
2017-05-21T09:48:52.577Z,0
2017-05-21T09:49:54.941Z,0
2017-05-21T09:50:57.289Z,0
2017-05-21T09:52:00.348Z,0
2017-05-21T09:53:02.710Z,0
2017-05-21T09:54:05.065Z,0
2017-05-21T09:55:07.426Z,0
2017-05-21T09:56:09.778Z,0
2017-05-21T09:57:12.736Z,0
2017-05-21T09:58:15.094Z,0
2017-05-21T09:59:17.454Z,0
2017-05-21T10:00:19.812Z,0
2017-05-21T10:01:22.167Z,0
2017-05-21T10:02:25.220Z,0
2017-05-21T10:03:27.598Z,0
2017-05-21T10:04:29.947Z,0
2017-05-21T10:05:32.299Z,0
2017-05-21T10:06:34.661Z,0
2017-05-21T10:07:37.622Z,0
2017-05-21T10:08:39.981Z,0
2017-05-21T10:09:42.340Z,0
2017-05-21T10:10:44.703Z,0
2017-05-21T10:11:47.058Z,0
2017-05-21T10:12:50.016Z,0
2017-05-21T10:13:52.376Z,0
2017-05-21T10:14:54.725Z,0
2017-05-21T10:15:57.093Z,0
2017-05-21T10:16:59.444Z,0
2017-05-21T10:18:02.415Z,0
2017-05-21T10:19:04.765Z,0
2017-05-21T10:20:07.128Z,0
2017-05-21T10:21:09.485Z,0
2017-05-21T10:22:11.842Z,0
2017-05-21T10:23:14.911Z,0
2017-05-21T10:24:17.261Z,0
2017-05-21T10:25:19.620Z,0
2017-05-21T10:26:21.971Z,0
2017-05-21T10:27:24.327Z,0
2017-05-21T10:28:27.282Z,0
2017-05-21T10:29:29.646Z,0
2017-05-21T10:30:31.997Z,0
2017-05-21T10:31:34.356Z,0
2017-05-21T10:32:36.766Z,0
2017-05-21T10:33:39.774Z,0
2017-05-21T10:34:42.139Z,0
2017-05-21T10:35:44.496Z,0
2017-05-21T10:36:46.843Z,0
2017-05-21T10:37:49.203Z,0
2017-05-21T10:38:52.162Z,0
2017-05-21T10:39:54.517Z,0
2017-05-21T10:40:56.869Z,0
2017-05-21T10:41:59.222Z,0
2017-05-21T10:43:01.580Z,0
2017-05-21T10:44:04.533Z,0
2017-05-21T10:45:06.888Z,0
2017-05-21T10:46:09.248Z,0
2017-05-21T10:47:11.607Z,0
2017-05-21T10:48:13.968Z,0
2017-05-21T10:49:17.020Z,0
2017-05-21T10:50:19.384Z,0
2017-05-21T10:51:21.740Z,0
2017-05-21T10:52:24.100Z,0
2017-05-21T10:53:26.454Z,0
2017-05-21T10:54:29.412Z,0
2017-05-21T10:55:31.764Z,0
2017-05-21T10:56:34.126Z,0
2017-05-21T10:57:36.479Z,0
2017-05-21T10:58:38.838Z,0
2017-05-21T10:59:41.799Z,0
2017-05-21T11:00:44.149Z,0
2017-05-21T11:01:46.498Z,0
2017-05-21T11:02:48.868Z,0
2017-05-21T11:03:51.226Z,0
2017-05-21T11:04:54.188Z,0
2017-05-21T11:05:56.541Z,0
2017-05-21T11:06:59.096Z,0
2017-05-21T11:08:01.456Z,0
2017-05-21T11:09:03.819Z,0
2017-05-21T11:10:06.782Z,0
2017-05-21T11:11:09.136Z,0
2017-05-21T11:12:11.491Z,0
2017-05-21T11:13:13.843Z,0
2017-05-21T11:14:16.203Z,0
2017-05-21T11:15:19.171Z,0
2017-05-21T11:16:21.524Z,0
2017-05-21T11:17:23.872Z,0
2017-05-21T11:18:26.233Z,0
2017-05-21T11:19:28.582Z,0
2017-05-21T11:20:31.537Z,0
2017-05-21T11:21:33.902Z,0
2017-05-21T11:22:36.265Z,0
2017-05-21T11:23:38.627Z,0
2017-05-21T11:24:40.982Z,0
2017-05-21T11:25:43.933Z,0
2017-05-21T11:26:46.289Z,0
2017-05-21T11:27:48.652Z,0
2017-05-21T11:28:51.019Z,0
2017-05-21T11:29:53.386Z,4
2017-05-21T11:30:56.331Z,0
2017-05-21T11:31:58.688Z,4
2017-05-21T11:33:01.039Z,4
2017-05-21T11:34:03.401Z,4
2017-05-21T11:35:05.759Z,8
2017-05-21T11:36:08.812Z,12
2017-05-21T11:37:11.166Z,12
2017-05-21T11:38:13.525Z,16
2017-05-21T11:39:15.880Z,20
2017-05-21T11:40:18.239Z,28
2017-05-21T11:41:21.297Z,36
2017-05-21T11:42:23.653Z,44
2017-05-21T11:43:26.016Z,56
2017-05-21T11:44:28.381Z,60
2017-05-21T11:45:30.741Z,80
2017-05-21T11:46:33.799Z,112
2017-05-21T11:47:36.159Z,140
2017-05-21T11:48:38.508Z,156
2017-05-21T11:49:40.867Z,180
2017-05-21T11:50:43.230Z,200
2017-05-21T11:51:46.190Z,240
2017-05-21T11:52:48.541Z,248
2017-05-21T11:53:50.907Z,276
2017-05-21T11:54:53.265Z,348
2017-05-21T11:55:55.628Z,392
2017-05-21T11:56:58.587Z,336
2017-05-21T11:58:00.947Z,284
2017-05-21T11:59:03.314Z,268
2017-05-21T12:00:05.684Z,304
2017-05-21T12:01:08.033Z,272
2017-05-21T12:02:10.990Z,248
2017-05-21T12:03:13.350Z,352
2017-05-21T12:04:15.712Z,584
2017-05-21T12:05:18.070Z,848
2017-05-21T12:06:20.430Z,964
2017-05-21T12:07:23.390Z,884
2017-05-21T12:08:25.748Z,1128
2017-05-21T12:09:28.102Z,1260
2017-05-21T12:10:30.456Z,1380
2017-05-21T12:11:32.820Z,1504
2017-05-21T12:12:35.789Z,1680
2017-05-21T12:13:38.144Z,1900
2017-05-21T12:14:40.507Z,2056
2017-05-21T12:15:42.874Z,2116
2017-05-21T12:16:45.249Z,1960
2017-05-21T12:17:48.308Z,1968
2017-05-21T12:18:50.657Z,2424
2017-05-21T12:19:53.018Z,2364
2017-05-21T12:20:55.383Z,2700
2017-05-21T12:21:57.741Z,2852
2017-05-21T12:23:00.808Z,2920
2017-05-21T12:24:03.164Z,2484
2017-05-21T12:25:05.542Z,2488
2017-05-21T12:26:07.890Z,2464
2017-05-21T12:27:10.255Z,2704
2017-05-21T12:28:13.214Z,3832
2017-05-21T12:29:15.573Z,2932
2017-05-21T12:30:17.940Z,3728
2017-05-21T12:31:20.305Z,3932
2017-05-21T12:32:22.665Z,3548
2017-05-21T12:33:25.724Z,3548
2017-05-21T12:34:28.082Z,4720
2017-05-21T12:35:30.443Z,4968
2017-05-21T12:36:32.806Z,3920
2017-05-21T12:37:35.163Z,4196
2017-05-21T12:38:38.121Z,4812
2017-05-21T12:39:40.482Z,5664
2017-05-21T12:40:42.842Z,6060
2017-05-21T12:41:45.203Z,7916
2017-05-21T12:42:47.563Z,7064
2017-05-21T12:43:50.473Z,6568
2017-05-21T12:44:52.839Z,5932
2017-05-21T12:45:55.204Z,6476
2017-05-21T12:46:57.557Z,4288
2017-05-21T12:47:59.918Z,3952
2017-05-21T12:49:02.827Z,3600
2017-05-21T12:50:05.181Z,2980
2017-05-21T12:51:07.551Z,6268
2017-05-21T12:52:09.910Z,8540
2017-05-21T12:53:12.259Z,6008
2017-05-21T12:54:15.228Z,6248
2017-05-21T12:55:17.579Z,7128
2017-05-21T12:56:19.941Z,9076
2017-05-21T12:57:22.304Z,9528
2017-05-21T12:58:24.667Z,8344
2017-05-21T12:59:27.582Z,7352
2017-05-21T13:00:29.927Z,6724
2017-05-21T13:01:32.294Z,6716
2017-05-21T13:02:34.649Z,5544
2017-05-21T13:03:37.020Z,6028
2017-05-21T13:04:39.979Z,8160
2017-05-21T13:05:42.394Z,8604
2017-05-21T13:06:44.696Z,8452
2017-05-21T13:07:47.055Z,6876
2017-05-21T13:08:49.415Z,5732
2017-05-21T13:09:52.328Z,9788
2017-05-21T13:10:54.687Z,15192
2017-05-21T13:11:57.241Z,8540
2017-05-21T13:12:59.607Z,10224
2017-05-21T13:14:01.969Z,8120
2017-05-21T13:15:05.071Z,9136
2017-05-21T13:16:07.395Z,11532
2017-05-21T13:17:09.759Z,12120
2017-05-21T13:18:12.119Z,11896
2017-05-21T13:19:14.487Z,13908
2017-05-21T13:20:17.448Z,16548
2017-05-21T13:21:19.811Z,13256
2017-05-21T13:22:22.166Z,11340
2017-05-21T13:23:24.533Z,9096
2017-05-21T13:24:26.895Z,13344
2017-05-21T13:25:29.809Z,11100
2017-05-21T13:26:32.172Z,10992
2017-05-21T13:27:34.530Z,10660
2017-05-21T13:28:36.892Z,10224
2017-05-21T13:29:39.255Z,16284
2017-05-21T13:30:42.212Z,23168
2017-05-21T13:31:44.567Z,27776
2017-05-21T13:32:46.932Z,22080
2017-05-21T13:33:49.299Z,20416
2017-05-21T13:34:51.658Z,9716
2017-05-21T13:35:54.622Z,16260
2017-05-21T13:36:56.981Z,21536
2017-05-21T13:37:59.341Z,22592
2017-05-21T13:39:01.720Z,23008
2017-05-21T13:40:04.089Z,23552
2017-05-21T13:41:07.050Z,24416
2017-05-21T13:42:09.419Z,25696
2017-05-21T13:43:11.778Z,25280
2017-05-21T13:44:14.139Z,19744
2017-05-21T13:45:16.509Z,29312
2017-05-21T13:46:19.470Z,28608
2017-05-21T13:47:21.831Z,19488
2017-05-21T13:48:24.200Z,31328
2017-05-21T13:49:26.560Z,21440
2017-05-21T13:50:28.923Z,10940
2017-05-21T13:51:31.988Z,31936
2017-05-21T13:52:34.346Z,29728
2017-05-21T13:53:36.716Z,35296
2017-05-21T13:54:39.084Z,41120
2017-05-21T13:55:41.446Z,30080
2017-05-21T13:56:44.511Z,31264
2017-05-21T13:57:46.872Z,32896
2017-05-21T13:58:49.228Z,25664
2017-05-21T13:59:51.610Z,30176
2017-05-21T14:00:53.964Z,26400
2017-05-21T14:01:56.934Z,29504
2017-05-21T14:02:59.298Z,33088
2017-05-21T14:04:01.666Z,36672
2017-05-21T14:05:04.030Z,37088
2017-05-21T14:06:06.404Z,38336
2017-05-21T14:07:09.324Z,40096
2017-05-21T14:08:11.685Z,41184
2017-05-21T14:09:14.057Z,22464
2017-05-21T14:10:16.420Z,37984
2017-05-21T14:11:18.791Z,36320
2017-05-21T14:12:21.764Z,43744
2017-05-21T14:13:24.140Z,42336
2017-05-21T14:14:26.516Z,49344
2017-05-21T14:15:28.892Z,27872
2017-05-21T14:16:31.261Z,42720
2017-05-21T14:17:34.238Z,49600
2017-05-21T14:18:36.600Z,38400
2017-05-21T14:19:38.982Z,22432
2017-05-21T14:20:41.353Z,23040
2017-05-21T14:21:43.750Z,35648
2017-05-21T14:22:46.725Z,53568
2017-05-21T14:23:49.084Z,52224
2017-05-21T14:24:51.455Z,51360
2017-05-21T14:25:53.819Z,62336
2017-05-21T14:26:56.190Z,21664
2017-05-21T14:27:59.280Z,9456
2017-05-21T14:29:01.650Z,12204
2017-05-21T14:30:04.021Z,16252
2017-05-21T14:31:06.386Z,62656
2017-05-21T14:32:08.767Z,23168
2017-05-21T14:33:11.890Z,25344
2017-05-21T14:34:14.279Z,16468
2017-05-21T14:35:16.628Z,15392
2017-05-21T14:36:18.999Z,30848
2017-05-21T14:37:21.378Z,23744
2017-05-21T14:38:24.304Z,35232
2017-05-21T14:39:26.670Z,66112
2017-05-21T14:40:29.053Z,70464
2017-05-21T14:41:31.444Z,28256
2017-05-21T14:42:33.848Z,31008
2017-05-21T14:43:36.835Z,38336
2017-05-21T14:44:39.198Z,26016
2017-05-21T14:45:41.566Z,19520
2017-05-21T14:46:43.928Z,26944
2017-05-21T14:47:46.305Z,34752
2017-05-21T14:48:49.310Z,29504
2017-05-21T14:49:51.684Z,27200
2017-05-21T14:50:54.079Z,37824
2017-05-21T14:51:56.447Z,42496
2017-05-21T14:52:58.854Z,54272
2017-05-21T14:54:01.824Z,60960
2017-05-21T14:55:04.187Z,58080
2017-05-21T14:56:06.584Z,46816
2017-05-21T14:57:09.001Z,21472
2017-05-21T14:58:11.344Z,20256